Time;durP1;ratioP1;P1;durP2;ratioP2;P2;SDS_P1;SDS_P2;PMS_P1;PMS_P2;Temp;Humidity;BMP_temperature;BMP_pressure;BME280_temperature;BME280_humidity;BME280_pressure;Samples;Min_cycle;Max_cycle;Signal;HPM_P1;HPM_P2
2022/12/21 00:00:40;;;;;;;80.10;40.93;;;;;;;1.26;84.69;98942.95;2173532;81;20988;-81
2022/12/21 00:03:41;;;;;;;81.30;42.43;;;;;;;1.21;84.93;98928.98;2173169;81;20972;-81
2022/12/21 00:06:41;;;;;;;76.13;40.23;;;;;;;1.20;84.92;98940.07;2173129;81;20952;-81
2022/12/21 00:09:42;;;;;;;75.77;40.70;;;;;;;1.15;84.88;98981.38;2173808;81;20961;-81
2022/12/21 00:12:42;;;;;;;81.43;42.10;;;;;;;1.16;85.22;98989.58;2173476;81;21017;-81
2022/12/21 00:15:43;;;;;;;81.77;42.50;;;;;;;1.20;85.18;98990.21;2173419;81;20936;-82
2022/12/21 00:18:43;;;;;;;83.43;42.10;;;;;;;1.22;85.27;98998.00;2173455;81;21124;-81
2022/12/21 00:21:43;;;;;;;82.43;40.87;;;;;;;1.22;85.12;98992.45;2173559;81;21276;-82
2022/12/21 00:24:44;;;;;;;79.90;41.67;;;;;;;1.19;85.17;98999.13;2173473;81;20953;-81
2022/12/21 00:27:48;;;;;;;84.07;42.87;;;;;;;1.20;85.21;98989.33;2173531;81;20929;-80
2022/12/21 00:30:46;;;;;;;79.27;40.93;;;;;;;1.16;85.05;98989.58;2162140;82;20965;-81
2022/12/21 00:33:47;;;;;;;82.77;41.03;;;;;;;1.10;85.11;98986.70;2173325;82;21012;-81
2022/12/21 00:36:47;;;;;;;80.70;41.37;;;;;;;1.06;85.18;98998.03;2173492;81;20988;-81
2022/12/21 00:39:48;;;;;;;75.47;39.03;;;;;;;1.00;85.20;98986.15;2173131;81;21028;-81
2022/12/21 00:42:48;;;;;;;75.83;38.47;;;;;;;0.95;85.27;98988.08;2173654;81;21004;-82
2022/12/21 00:45:48;;;;;;;77.93;38.50;;;;;;;0.93;85.24;98999.09;2173451;81;21031;-81
2022/12/21 00:48:49;;;;;;;81.10;40.37;;;;;;;0.90;85.26;98984.79;2173416;81;21024;-81
2022/12/21 00:51:49;;;;;;;72.57;39.50;;;;;;;0.87;85.28;98980.78;2173228;82;20993;-81
2022/12/21 00:54:50;;;;;;;70.97;38.13;;;;;;;0.82;85.24;98988.62;2173519;81;21376;-82
2022/12/21 00:57:50;;;;;;;71.27;37.57;;;;;;;0.77;85.27;99003.80;2173407;82;20995;-82
2022/12/21 01:00:50;;;;;;;75.03;38.83;;;;;;;0.75;85.44;99004.11;2173717;82;21001;-81
2022/12/21 01:03:51;;;;;;;74.70;38.07;;;;;;;0.75;85.30;98996.41;2173385;81;20992;-81
2022/12/21 01:06:51;;;;;;;71.80;39.07;;;;;;;0.74;85.36;98991.19;2173355;81;20981;-81
2022/12/21 01:09:52;;;;;;;86.43;41.67;;;;;;;0.74;85.38;98989.91;2173526;81;20961;-81
2022/12/21 01:12:52;;;;;;;83.43;40.43;;;;;;;0.74;85.51;98971.92;2173227;81;20929;-81
2022/12/21 01:15:53;;;;;;;84.23;41.83;;;;;;;0.70;85.43;98989.27;2173288;81;20976;-82
2022/12/21 01:18:53;;;;;;;85.63;41.13;;;;;;;0.69;85.58;98984.92;2173247;81;21048;-81
2022/12/21 01:21:53;;;;;;;73.63;37.50;;;;;;;0.68;85.50;98994.31;2173607;82;21320;-81
2022/12/21 01:24:54;;;;;;;77.30;38.47;;;;;;;0.67;85.49;98996.41;2173308;81;20977;-81
2022/12/21 01:27:54;;;;;;;75.37;37.53;;;;;;;0.66;85.57;98993.75;2173398;82;21013;-81
2022/12/21 01:30:54;;;;;;;65.47;36.13;;;;;;;0.66;85.81;98993.75;2173386;81;20965;-81
2022/12/21 01:33:55;;;;;;;76.20;37.90;;;;;;;0.68;85.65;98981.88;2173459;82;21044;-81
2022/12/21 01:36:55;;;;;;;72.57;37.53;;;;;;;0.70;85.64;98983.72;2173252;81;20988;-80
2022/12/21 01:39:56;;;;;;;71.53;36.70;;;;;;;0.74;85.57;98979.63;2172455;82;20968;-80
2022/12/21 01:42:56;;;;;;;71.67;38.10;;;;;;;0.77;85.68;98985.80;2172136;81;20981;-81
2022/12/21 01:45:56;;;;;;;71.33;37.33;;;;;;;0.80;85.71;98979.55;2172509;81;21349;-81
2022/12/21 01:48:57;;;;;;;71.73;36.83;;;;;;;0.91;85.64;98969.85;2172308;81;21024;-81
2022/12/21 01:51:58;;;;;;;71.90;35.93;;;;;;;0.94;85.50;98961.89;2172440;81;20932;-81
2022/12/21 01:54:58;;;;;;;68.33;35.70;;;;;;;0.99;85.65;98951.84;2172936;82;21372;-81
2022/12/21 01:57:58;;;;;;;65.77;34.90;;;;;;;1.07;85.45;98943.23;2173099;81;20968;-81
2022/12/21 02:00:58;;;;;;;75.77;36.73;;;;;;;1.08;85.22;98951.43;2173215;81;21025;-81
2022/12/21 02:03:59;;;;;;;68.70;34.80;;;;;;;1.08;85.17;98930.86;2173261;81;21317;-81
2022/12/21 02:06:59;;;;;;;66.80;34.67;;;;;;;1.06;85.01;98931.19;2173296;81;20952;-81
2022/12/21 02:10:00;;;;;;;67.43;36.60;;;;;;;1.07;85.09;98927.41;2173402;81;20944;-81
2022/12/21 02:13:00;;;;;;;70.27;35.97;;;;;;;1.05;85.07;98920.43;2173139;81;21284;-81
2022/12/21 02:16:00;;;;;;;72.23;35.40;;;;;;;1.06;85.18;98924.77;2173269;81;20957;-81
2022/12/21 02:19:01;;;;;;;67.77;36.33;;;;;;;1.06;85.14;98909.34;2175286;81;21058;-81
2022/12/21 02:22:01;;;;;;;71.17;37.03;;;;;;;1.06;85.41;98919.63;2189803;81;21363;-81
2022/12/21 02:25:02;;;;;;;67.67;36.03;;;;;;;1.07;85.17;98920.10;2189739;81;20956;-81
2022/12/21 02:28:02;;;;;;;68.87;35.50;;;;;;;1.07;85.20;98918.81;2189963;81;21028;-81
2022/12/21 02:31:02;;;;;;;76.30;37.53;;;;;;;1.08;85.12;98913.75;2189777;81;21331;-81
2022/12/21 02:34:03;;;;;;;71.20;37.20;;;;;;;1.06;85.12;98917.05;2189807;81;20980;-81
2022/12/21 02:37:04;;;;;;;68.03;36.37;;;;;;;1.04;84.98;98904.13;2189996;81;21311;-82
2022/12/21 02:40:05;;;;;;;72.17;37.23;;;;;;;1.02;85.03;98901.88;2189965;81;21318;-81
2022/12/21 02:46:23;;;;;;;71.00;36.20;;;;;;;1.03;85.12;98894.65;2189962;81;21407;-81
2022/12/21 02:49:23;;;;;;;69.67;36.00;;;;;;;1.03;84.96;98887.34;2189539;81;21374;-81
2022/12/21 02:52:24;;;;;;;73.70;35.73;;;;;;;1.03;84.93;98873.20;2189878;81;20921;-82
2022/12/21 02:55:24;;;;;;;71.00;35.37;;;;;;;1.03;84.85;98879.22;2189653;81;20933;-81
2022/12/21 02:58:25;;;;;;;67.13;35.53;;;;;;;0.98;84.81;98874.26;2189954;81;21048;-82
2022/12/21 03:01:25;;;;;;;60.93;31.30;;;;;;;0.97;84.94;98882.77;2189788;81;20924;-82
2022/12/21 03:04:25;;;;;;;69.43;35.87;;;;;;;0.98;89.34;98885.83;2189829;81;21233;-82
2022/12/21 03:07:26;;;;;;;70.63;35.20;;;;;;;1.24;85.77;98904.70;2189909;81;20980;-82
2022/12/21 03:10:26;;;;;;;67.77;35.30;;;;;;;1.18;84.77;98886.80;2190060;81;20921;-82
2022/12/21 03:13:27;;;;;;;64.70;34.40;;;;;;;1.06;84.61;98872.95;2189666;81;21374;-82
2022/12/21 03:16:27;;;;;;;67.50;34.73;;;;;;;0.99;84.61;98844.30;2189890;81;20988;-83
2022/12/21 03:19:27;;;;;;;62.07;32.17;;;;;;;0.93;84.79;98870.58;2189857;81;21023;-82
2022/12/21 03:22:28;;;;;;;68.90;36.13;;;;;;;0.88;84.59;98877.17;2189725;81;21303;-82
2022/12/21 03:25:28;;;;;;;67.43;35.53;;;;;;;0.79;84.58;98890.81;2189922;81;20956;-83
2022/12/21 03:28:29;;;;;;;69.93;36.07;;;;;;;0.73;84.74;98890.10;2190109;81;20956;-82
2022/12/21 03:31:29;;;;;;;67.90;35.53;;;;;;;0.66;84.80;98902.55;2189925;81;20909;-82
2022/12/21 03:34:29;;;;;;;71.30;35.43;;;;;;;0.62;84.95;98893.81;2189869;81;21000;-82
2022/12/21 03:37:30;;;;;;;70.57;36.70;;;;;;;0.55;84.82;98905.45;2189957;81;21003;-82
2022/12/21 03:40:30;;;;;;;68.73;35.50;;;;;;;0.47;84.80;98890.45;2189856;81;20948;-81
2022/12/21 03:43:31;;;;;;;72.00;35.07;;;;;;;0.37;84.89;98877.54;2189966;81;21000;-82
2022/12/21 03:46:31;;;;;;;62.33;34.57;;;;;;;0.32;84.99;98877.70;2190159;81;21007;-82
2022/12/21 03:49:31;;;;;;;68.30;35.77;;;;;;;0.27;85.08;98886.84;2189510;81;21011;-82
2022/12/21 03:52:32;;;;;;;66.60;34.13;;;;;;;0.23;85.02;98886.20;2189431;81;21366;-82
2022/12/21 03:55:32;;;;;;;69.73;34.67;;;;;;;0.23;85.21;98881.07;2189949;81;21355;-82
2022/12/21 03:58:33;;;;;;;67.47;34.37;;;;;;;0.21;85.41;98892.94;2190071;81;21030;-81
2022/12/21 04:01:33;;;;;;;68.93;33.57;;;;;;;0.20;85.36;98902.33;2189887;81;21000;-82
2022/12/21 04:04:33;;;;;;;68.77;33.50;;;;;;;0.16;85.38;98908.09;2190404;81;21000;-80
2022/12/21 04:07:34;;;;;;;65.00;32.87;;;;;;;0.14;85.43;98897.27;2190502;81;20960;-80
2022/12/21 04:10:34;;;;;;;67.87;33.87;;;;;;;0.12;85.37;98897.59;2190289;81;20944;-82
2022/12/21 04:13:34;;;;;;;64.90;33.50;;;;;;;0.12;85.37;98888.61;2189679;81;21017;-82
2022/12/21 04:16:35;;;;;;;67.67;34.23;;;;;;;0.06;85.38;98887.00;2189505;81;20984;-81
2022/12/21 04:29:31;;;;;;;79.20;40.10;;;;;;;0.03;85.59;98870.15;2190149;81;20956;-84
2022/12/21 04:32:32;;;;;;;70.40;35.57;;;;;;;2.20;100.00;98868.09;2188783;81;21257;-86
2022/12/21 04:35:32;;;;;;;64.17;33.57;;;;;;;6.56;100.00;98847.08;2189478;81;20976;-84
2022/12/21 04:38:33;;;;;;;60.13;32.77;;;;;;;7.87;100.00;98843.53;2190097;81;21039;-83
2022/12/21 04:41:33;;;;;;;65.10;34.87;;;;;;;5.93;79.17;98856.02;2189884;81;20995;-84
2022/12/21 04:44:34;;;;;;;57.77;30.97;;;;;;;4.40;77.66;98866.40;2190049;81;20972;-84
2022/12/21 04:47:34;;;;;;;63.60;34.40;;;;;;;3.35;77.30;98869.15;2189080;81;20932;-84
2022/12/21 04:50:35;;;;;;;57.83;32.50;;;;;;;2.62;78.14;98867.37;2188483;81;21028;-85
2022/12/21 04:53:35;;;;;;;62.90;34.33;;;;;;;2.09;78.98;98861.98;2188480;81;20991;-84
2022/12/21 04:56:35;;;;;;;64.07;33.70;;;;;;;1.68;79.85;98857.08;2188428;81;21017;-84
2022/12/21 04:59:35;;;;;;;64.83;34.47;;;;;;;1.36;80.34;98862.39;2188570;81;21007;-85
2022/12/21 05:02:36;;;;;;;58.73;33.07;;;;;;;1.08;81.06;98872.62;2187940;81;21020;-84
2022/12/21 05:05:36;;;;;;;64.13;34.87;;;;;;;0.83;81.60;98870.89;2189015;81;20977;-83
2022/12/21 05:08:37;;;;;;;60.77;34.43;;;;;;;0.64;82.32;98878.95;2189494;81;20984;-83
2022/12/21 05:11:37;;;;;;;52.17;26.90;;;;;;;0.52;83.00;98869.34;2188563;81;21336;-88
2022/12/21 05:14:37;;;;;;;56.53;32.13;;;;;;;0.54;92.49;98871.58;2188276;81;21563;-78
2022/12/21 05:17:38;;;;;;;58.33;31.87;;;;;;;1.93;96.38;98882.70;2188062;81;20963;-84
2022/12/21 05:20:38;;;;;;;57.47;31.83;;;;;;;1.48;82.85;98876.72;2182567;81;21411;-85
2022/12/21 05:23:39;;;;;;;59.50;31.57;;;;;;;1.48;82.85;98876.72;2173364;82;20988;-83
2022/12/21 05:26:39;;;;;;;65.73;33.67;;;;;;;1.21;83.01;98872.41;2173117;81;20976;-83
2022/12/21 05:29:40;;;;;;;57.10;31.43;;;;;;;0.85;83.10;98877.88;2173037;81;21020;-84
2022/12/21 05:32:40;;;;;;;62.10;31.93;;;;;;;0.85;83.10;98877.88;2172520;82;21020;-83
2022/12/21 05:35:43;;;;;;;59.67;32.47;;;;;;;0.72;83.74;98874.61;2171855;82;20984;-83
2022/12/21 05:38:43;;;;;;;59.47;32.50;;;;;;;0.65;84.02;98887.55;2171741;81;21332;-83
2022/12/21 05:41:44;;;;;;;58.03;30.93;;;;;;;0.61;84.28;98881.77;2171384;82;20925;-82
2022/12/21 05:44:44;;;;;;;57.50;32.40;;;;;;;0.55;84.33;98873.75;2171592;81;20999;-84
2022/12/21 05:47:46;;;;;;;64.77;34.63;;;;;;;0.48;84.45;98873.84;2172818;82;21897;-83
2022/12/21 05:50:45;;;;;;;68.73;36.30;;;;;;;0.39;84.44;98875.93;2171056;81;21038;-84
2022/12/21 05:53:45;;;;;;;72.03;36.43;;;;;;;0.34;84.77;98872.23;2171027;81;20945;-83
2022/12/21 05:56:46;;;;;;;65.97;34.33;;;;;;;0.36;85.04;98865.50;2171255;81;21308;-81
2022/12/21 05:59:46;;;;;;;62.70;33.90;;;;;;;0.34;85.15;98860.69;2170365;81;21467;-82
2022/12/21 06:02:47;;;;;;;61.50;33.57;;;;;;;0.33;85.38;98867.91;2170801;81;20929;-83
2022/12/21 06:05:47;;;;;;;66.20;34.60;;;;;;;0.38;85.65;98868.15;2172497;81;20944;-87
2022/12/21 06:08:47;;;;;;;65.27;34.23;;;;;;;0.41;85.82;98864.45;2173828;81;21007;-85
2022/12/21 06:11:48;;;;;;;69.77;35.87;;;;;;;0.45;85.75;98865.97;2172513;82;21005;-86
2022/12/21 06:14:48;;;;;;;62.83;33.37;;;;;;;0.47;85.91;98859.63;2171439;82;21024;-84
2022/12/21 06:17:51;;;;;;;67.97;34.40;;;;;;;0.53;86.00;98865.97;2160709;82;21721;-85
2022/12/21 06:20:51;;;;;;;57.00;31.23;;;;;;;0.55;86.05;98866.92;2171586;81;21024;-85
2022/12/21 06:23:52;;;;;;;58.30;30.53;;;;;;;0.59;85.85;98871.42;2171302;81;20984;-85
2022/12/21 06:26:52;;;;;;;57.10;31.07;;;;;;;0.61;85.91;98870.20;2171105;81;21016;-84
2022/12/21 06:29:52;;;;;;;62.63;33.70;;;;;;;0.65;86.13;98869.56;2171654;81;21304;-84
2022/12/21 06:32:53;;;;;;;64.73;31.53;;;;;;;0.70;86.46;98857.83;2170587;81;20964;-84
2022/12/21 06:35:55;;;;;;;65.90;32.37;;;;;;;0.77;86.63;98864.16;2171964;82;21000;-84
2022/12/21 06:38:53;;;;;;;90.53;46.77;;;;;;;0.81;86.66;98858.37;2170857;81;20957;-84
2022/12/21 06:41:54;;;;;;;84.40;48.13;;;;;;;0.88;86.77;98857.91;2170882;82;21340;-85
2022/12/21 06:44:54;;;;;;;62.27;35.00;;;;;;;0.95;87.21;98852.26;2170422;81;20928;-84
2022/12/21 06:47:55;;;;;;;65.33;35.47;;;;;;;1.06;87.34;98854.07;2171388;81;20996;-85
2022/12/21 06:50:57;;;;;;;55.37;31.23;;;;;;;1.17;87.43;98850.33;2160875;82;21360;-87
2022/12/21 06:53:57;;;;;;;48.33;28.27;;;;;;;1.25;87.23;98837.04;2171949;81;20981;-84
2022/12/21 06:56:59;;;;;;;55.27;29.47;;;;;;;1.34;87.18;98834.02;2171220;81;21000;-85
2022/12/21 06:59:58;;;;;;;57.03;31.03;;;;;;;1.41;87.22;98829.65;2171450;81;21051;-85
2022/12/21 07:02:59;;;;;;;54.83;30.60;;;;;;;1.49;87.19;98828.72;2171349;81;21390;-86
2022/12/21 07:05:59;;;;;;;51.90;30.40;;;;;;;1.56;87.09;98828.20;2171224;81;21020;-85
2022/12/21 07:08:59;;;;;;;49.90;27.47;;;;;;;1.61;87.16;98830.58;2170563;81;21423;-85
2022/12/21 07:12:00;;;;;;;53.47;27.47;;;;;;;1.70;87.18;98826.27;2171827;81;20932;-86
2022/12/21 07:15:00;;;;;;;61.13;28.63;;;;;;;1.76;87.04;98821.44;2171082;81;20965;-85
2022/12/21 07:18:01;;;;;;;160.97;95.20;;;;;;;1.81;86.79;98827.27;2171589;81;21031;-83
2022/12/21 07:21:05;;;;;;;99.03;58.70;;;;;;;1.84;86.68;98823.55;2177029;81;21062;-84
2022/12/21 07:24:05;;;;;;;65.77;35.53;;;;;;;1.90;86.66;98826.39;2188696;81;20932;-84
2022/12/21 07:27:05;;;;;;;49.53;29.20;;;;;;;1.91;86.12;98823.02;2188779;81;20956;-85
2022/12/21 07:30:06;;;;;;;52.93;29.43;;;;;;;1.93;86.11;98815.77;2187817;81;20941;-84
2022/12/21 07:33:06;;;;;;;56.23;31.60;;;;;;;1.93;86.07;98814.48;2189200;81;20928;-84
2022/12/21 07:36:06;;;;;;;55.50;30.67;;;;;;;2.00;86.28;98824.23;2187842;81;20964;-85
2022/12/21 07:39:07;;;;;;;56.53;30.23;;;;;;;2.07;86.20;98824.98;2187782;81;21000;-84
2022/12/21 07:42:07;;;;;;;53.40;28.93;;;;;;;2.12;86.09;98822.20;2186275;81;21819;-84
2022/12/21 07:45:09;;;;;;;50.37;27.93;;;;;;;2.17;86.02;98832.31;2186370;81;20976;-84
2022/12/21 07:48:08;;;;;;;47.80;26.93;;;;;;;2.22;86.25;98826.55;2187509;81;20901;-85
2022/12/21 07:51:08;;;;;;;52.93;29.83;;;;;;;2.26;86.23;98823.70;2186511;81;20978;-84
2022/12/21 07:54:09;;;;;;;60.00;34.87;;;;;;;2.36;86.22;98813.39;2187084;81;20924;-84
2022/12/21 07:57:09;;;;;;;54.23;30.40;;;;;;;2.45;86.30;98805.64;2187528;81;20964;-85
2022/12/21 08:00:10;;;;;;;52.40;29.97;;;;;;;2.50;86.01;98807.13;2186719;81;21011;-84
2022/12/21 08:03:11;;;;;;;50.90;28.83;;;;;;;2.58;86.12;98803.19;2186758;81;21398;-86
2022/12/21 08:06:11;;;;;;;52.23;28.20;;;;;;;2.67;85.97;98792.41;2187579;81;21004;-84
2022/12/21 08:09:11;;;;;;;49.80;29.17;;;;;;;2.71;85.89;98805.49;2187313;81;21330;-85
2022/12/21 08:12:12;;;;;;;53.90;29.50;;;;;;;2.77;85.88;98810.91;2187215;81;20988;-85
2022/12/21 08:15:12;;;;;;;137.23;76.83;;;;;;;2.83;85.73;98810.28;2186939;81;20928;-83
2022/12/21 08:18:13;;;;;;;63.53;36.93;;;;;;;2.89;85.81;98814.40;2187508;81;21629;-84
2022/12/21 08:21:13;;;;;;;64.20;34.20;;;;;;;2.98;85.67;98824.21;2186893;81;21011;-86
2022/12/21 08:24:14;;;;;;;61.10;34.83;;;;;;;3.04;85.51;98826.63;2187171;81;21084;-85
2022/12/21 08:27:14;;;;;;;69.50;36.40;;;;;;;3.14;85.46;98809.42;2187189;81;20971;-84
2022/12/21 08:30:15;;;;;;;105.03;61.40;;;;;;;3.28;85.46;98811.27;2186637;81;21318;-86
2022/12/21 08:33:15;;;;;;;70.37;39.27;;;;;;;3.35;85.06;98808.52;2187615;81;20941;-84
2022/12/21 08:36:15;;;;;;;57.10;33.93;;;;;;;3.40;84.93;98814.33;2189341;81;20927;-83
2022/12/21 08:39:16;;;;;;;55.67;33.07;;;;;;;3.47;84.72;98807.73;2188395;81;20956;-83
2022/12/21 08:42:16;;;;;;;62.00;34.13;;;;;;;3.47;84.70;98802.58;2187338;81;21413;-85
2022/12/21 08:45:16;;;;;;;57.80;32.60;;;;;;;3.50;84.77;98801.41;2187570;81;20940;-84
2022/12/21 08:48:17;;;;;;;56.13;31.43;;;;;;;3.57;84.42;98804.70;2188698;81;20952;-84
2022/12/21 08:51:17;;;;;;;55.20;32.00;;;;;;;3.64;84.39;98806.69;2187128;81;21046;-84
2022/12/21 08:54:18;;;;;;;54.17;29.60;;;;;;;3.69;84.20;98800.00;2187662;81;21589;-82
2022/12/21 08:57:18;;;;;;;54.87;31.33;;;;;;;3.72;83.87;98794.95;2187223;81;20987;-83
2022/12/21 09:00:18;;;;;;;58.27;30.60;;;;;;;3.72;84.07;98799.23;2186916;81;21406;-82
2022/12/21 09:03:19;;;;;;;88.27;57.00;;;;;;;3.72;83.76;98793.66;2187499;81;20900;-83
2022/12/21 09:06:20;;;;;;;133.40;82.83;;;;;;;3.63;83.84;98792.02;2187729;81;21355;-81
2022/12/21 09:09:19;;;;;;;67.90;37.13;;;;;;;3.58;84.09;98793.55;2187465;81;20991;-80
2022/12/21 09:12:20;;;;;;;53.73;30.73;;;;;;;3.51;84.14;98788.97;2187559;81;20923;-83
2022/12/21 09:15:20;;;;;;;55.17;31.20;;;;;;;3.53;84.21;98796.36;2187769;81;20932;-81
2022/12/21 09:18:21;;;;;;;60.27;30.83;;;;;;;3.55;84.20;98797.30;2187996;81;21442;-81
2022/12/21 09:21:21;;;;;;;65.03;33.23;;;;;;;3.58;84.04;98791.38;2182951;81;20996;-81
2022/12/21 09:24:21;;;;;;;68.23;36.03;;;;;;;3.59;84.02;98794.43;2171242;81;21324;-80
2022/12/21 09:27:22;;;;;;;70.17;34.93;;;;;;;3.60;84.08;98790.62;2171857;82;21269;-82
2022/12/21 09:30:23;;;;;;;60.07;32.77;;;;;;;3.64;84.08;98789.91;2171447;81;20937;-81
2022/12/21 09:33:23;;;;;;;62.53;34.87;;;;;;;3.65;83.84;98784.34;2171271;81;20940;-82
2022/12/21 09:36:23;;;;;;;63.60;34.20;;;;;;;3.67;83.80;98780.99;2171054;81;21016;-80
2022/12/21 09:39:23;;;;;;;73.20;35.43;;;;;;;3.70;83.75;98791.44;2170193;81;20988;-81
2022/12/21 09:42:24;;;;;;;67.53;37.07;;;;;;;3.74;83.54;98788.55;2170919;81;20985;-80
2022/12/21 09:45:24;;;;;;;71.60;35.53;;;;;;;3.80;83.57;98784.91;2170538;81;21371;-80
2022/12/21 09:48:25;;;;;;;69.07;33.90;;;;;;;3.88;83.55;98789.95;2169934;81;20976;-81
2022/12/21 09:51:25;;;;;;;63.87;33.80;;;;;;;3.91;83.40;98784.02;2169812;81;20976;-81
2022/12/21 09:54:25;;;;;;;64.50;34.43;;;;;;;3.95;83.26;98772.56;2170258;81;20913;-81
2022/12/21 09:57:26;;;;;;;62.77;33.47;;;;;;;4.00;83.01;98771.03;2170592;81;21000;-81
2022/12/21 10:00:27;;;;;;;66.17;35.87;;;;;;;4.08;82.87;98773.48;2170549;81;20925;-82
2022/12/21 10:03:28;;;;;;;74.40;39.57;;;;;;;4.13;82.70;98786.56;2170760;81;21324;-80
2022/12/21 10:06:29;;;;;;;65.97;38.00;;;;;;;4.19;82.56;98782.91;2171235;82;20957;-79
2022/12/21 10:09:30;;;;;;;59.00;33.70;;;;;;;4.30;82.38;98775.12;2171417;82;21615;-81
2022/12/21 10:12:31;;;;;;;64.70;36.73;;;;;;;4.37;81.91;98774.55;2170135;81;20953;-80
2022/12/21 10:15:31;;;;;;;64.93;36.77;;;;;;;4.43;81.89;98788.97;2169980;81;20953;-80
2022/12/21 10:18:32;;;;;;;56.90;33.43;;;;;;;4.53;81.86;98788.00;2169630;81;21341;-80
2022/12/21 10:21:32;;;;;;;50.60;30.80;;;;;;;4.62;81.63;98781.84;2174624;81;21110;-80
2022/12/21 10:24:32;;;;;;;54.80;30.20;;;;;;;4.69;81.21;98779.94;2186237;81;20944;-80
2022/12/21 10:27:33;;;;;;;53.90;30.87;;;;;;;4.72;80.80;98774.87;2185468;81;21004;-80
2022/12/21 10:30:33;;;;;;;55.23;31.80;;;;;;;4.72;80.83;98766.70;2185594;81;20908;-78
2022/12/21 10:33:33;;;;;;;59.70;34.43;;;;;;;4.78;80.69;98763.44;2185263;81;20975;-80
2022/12/21 10:40:11;;;;;;;53.40;31.13;;;;;;;4.80;80.65;98753.61;2187166;81;20951;-81
2022/12/21 10:43:12;;;;;;;54.73;31.10;;;;;;;4.72;80.40;98743.42;2187098;81;20933;-81
2022/12/21 10:46:12;;;;;;;108.90;65.60;;;;;;;4.75;80.69;98742.65;2186514;81;20932;-80
2022/12/21 10:49:13;;;;;;;63.33;36.47;;;;;;;4.79;80.66;98745.39;2185964;81;21383;-79
2022/12/21 10:52:13;;;;;;;53.47;31.70;;;;;;;4.79;80.35;98738.92;2186203;81;20984;-81
2022/12/21 10:55:13;;;;;;;52.10;30.27;;;;;;;4.82;80.14;98738.14;2186500;81;20900;-81
2022/12/21 10:58:16;;;;;;;59.50;30.57;;;;;;;4.84;79.92;98735.61;2185851;81;21689;-79
2022/12/21 11:01:14;;;;;;;52.57;32.37;;;;;;;4.89;79.85;98728.87;2186053;81;20901;-81
2022/12/21 11:04:15;;;;;;;51.63;31.00;;;;;;;4.92;79.75;98722.09;2187560;81;20991;-80
2022/12/21 11:07:15;;;;;;;69.10;39.83;;;;;;;4.93;79.66;98726.44;2187433;81;21079;-81
2022/12/21 11:10:15;;;;;;;54.90;32.00;;;;;;;4.93;79.70;98729.02;2187271;81;20974;-80
2022/12/21 11:13:16;;;;;;;56.83;31.60;;;;;;;4.97;79.48;98721.82;2186806;81;20999;-80
2022/12/21 11:16:16;;;;;;;48.23;29.30;;;;;;;4.96;79.37;98721.77;2187557;81;20940;-80
2022/12/21 11:19:17;;;;;;;46.33;29.13;;;;;;;4.92;79.21;98717.33;2187160;81;21415;-80
2022/12/21 11:22:17;;;;;;;45.87;29.03;;;;;;;4.90;79.29;98716.41;2186826;81;20992;-79
2022/12/21 11:25:17;;;;;;;51.57;28.13;;;;;;;4.86;79.40;98714.14;2186282;81;20909;-78
2022/12/21 11:28:18;;;;;;;48.33;27.10;;;;;;;4.88;79.83;98716.36;2185971;81;21553;-80
2022/12/21 11:31:18;;;;;;;49.83;28.13;;;;;;;4.89;79.61;98714.23;2187438;81;20933;-80
2022/12/21 11:34:19;;;;;;;49.73;28.87;;;;;;;4.86;79.58;98718.02;2187700;81;21028;-80
2022/12/21 11:37:19;;;;;;;46.63;26.40;;;;;;;4.86;79.74;98713.26;2187691;81;21494;-80
2022/12/21 11:40:22;;;;;;;43.80;24.40;;;;;;;4.82;79.63;98714.87;2187757;81;21091;-80
2022/12/21 11:43:23;;;;;;;40.43;25.10;;;;;;;4.80;79.80;98713.94;2187363;81;20964;-80
2022/12/21 11:46:23;;;;;;;43.77;25.47;;;;;;;4.79;79.79;98713.48;2187537;81;20901;-80
2022/12/21 11:49:24;;;;;;;42.67;23.57;;;;;;;4.69;79.98;98704.55;2188028;81;20967;-81
2022/12/21 11:52:24;;;;;;;41.93;23.67;;;;;;;4.73;80.25;98694.77;2187421;81;21082;-80
2022/12/21 11:55:24;;;;;;;43.93;24.50;;;;;;;4.79;80.32;98699.25;2186844;81;21462;-81
2022/12/21 11:58:25;;;;;;;46.00;26.37;;;;;;;4.79;80.30;98701.84;2186770;81;20987;-78
2022/12/21 12:01:25;;;;;;;67.03;32.50;;;;;;;4.77;80.14;98703.08;2187293;81;21018;-81
2022/12/21 12:04:30;;;;;;;75.07;33.63;;;;;;;4.71;80.14;98702.00;2187631;81;20999;-81
2022/12/21 12:07:28;;;;;;;80.73;36.00;;;;;;;4.72;80.17;98706.34;2169606;81;20897;-79
2022/12/21 12:10:28;;;;;;;82.63;37.37;;;;;;;4.71;80.17;98700.30;2186622;81;21627;-80
2022/12/21 12:13:29;;;;;;;77.83;37.90;;;;;;;4.66;80.27;98695.80;2186809;81;20991;-81
2022/12/21 12:16:29;;;;;;;74.90;33.47;;;;;;;4.66;80.63;98696.69;2187183;81;21047;-82
2022/12/21 12:19:29;;;;;;;62.90;30.90;;;;;;;4.67;80.58;98689.80;2188136;81;20991;-80
2022/12/21 12:22:30;;;;;;;54.03;27.20;;;;;;;4.67;80.81;98683.34;2188216;81;21054;-80
2022/12/21 12:25:30;;;;;;;48.53;25.70;;;;;;;4.65;80.98;98687.59;2188199;81;21409;-80
2022/12/21 12:28:31;;;;;;;53.17;27.00;;;;;;;4.63;81.05;98684.08;2188178;81;20975;-81
2022/12/21 12:31:34;;;;;;;40.30;24.70;;;;;;;4.61;81.22;98684.02;2188227;81;20951;-82
2022/12/21 12:34:37;;;;;;;43.80;24.67;;;;;;;4.56;81.19;98681.70;2188045;81;21308;-82
2022/12/21 12:37:38;;;;;;;45.43;26.33;;;;;;;4.55;81.46;98676.48;2187795;81;21332;-80
2022/12/21 12:40:38;;;;;;;75.53;45.03;;;;;;;4.54;81.68;98677.31;2187079;81;21011;-80
2022/12/21 12:43:38;;;;;;;63.33;35.67;;;;;;;4.52;81.84;98669.51;2187480;81;20967;-81
2022/12/21 12:46:39;;;;;;;64.03;34.27;;;;;;;4.51;82.03;98664.28;2186478;81;20995;-81
2022/12/21 12:49:41;;;;;;;59.43;32.47;;;;;;;4.50;82.24;98665.11;2187269;81;20987;-80
2022/12/21 12:52:40;;;;;;;59.60;34.73;;;;;;;4.44;82.29;98675.72;2186821;81;21442;-80
2022/12/21 12:55:40;;;;;;;68.67;40.90;;;;;;;4.41;82.83;98666.98;2187159;81;20961;-81
2022/12/21 12:58:40;;;;;;;61.97;34.57;;;;;;;4.37;83.08;98667.70;2186575;81;20964;-80
2022/12/21 13:01:41;;;;;;;53.70;31.00;;;;;;;4.31;82.95;98670.05;2186731;81;20968;-81
2022/12/21 13:04:41;;;;;;;45.87;26.63;;;;;;;4.26;83.22;98675.06;2186660;81;20916;-81
2022/12/21 13:07:42;;;;;;;44.63;24.43;;;;;;;4.22;83.33;98677.50;2186471;81;21453;-81
2022/12/21 13:10:42;;;;;;;40.70;22.03;;;;;;;4.20;83.58;98682.61;2185890;81;20932;-82
2022/12/21 13:13:42;;;;;;;35.27;21.27;;;;;;;4.24;83.80;98678.02;2185760;81;21052;-82
2022/12/21 13:16:43;;;;;;;37.73;21.53;;;;;;;4.27;83.84;98666.49;2186006;81;20929;-81
2022/12/21 13:19:43;;;;;;;32.17;19.10;;;;;;;4.27;83.64;98670.37;2185724;81;21478;-80
2022/12/21 13:22:44;;;;;;;32.93;20.23;;;;;;;4.25;83.67;98681.06;2180242;81;21479;-80
2022/12/21 13:25:44;;;;;;;44.30;26.47;;;;;;;4.23;83.72;98677.96;2168964;81;20905;-81
2022/12/21 13:28:44;;;;;;;66.27;38.27;;;;;;;4.22;84.02;98679.67;2168955;82;20985;-80
2022/12/21 13:31:45;;;;;;;44.83;24.47;;;;;;;4.24;83.98;98686.17;2169112;81;20969;-82
2022/12/21 13:34:45;;;;;;;41.23;22.60;;;;;;;4.22;83.91;98681.38;2169115;81;20992;-81
2022/12/21 13:37:46;;;;;;;36.40;21.27;;;;;;;4.16;84.06;98671.70;2169070;81;20952;-82
2022/12/21 13:40:46;;;;;;;42.67;22.43;;;;;;;4.14;84.32;98678.53;2169378;81;20961;-82
2022/12/21 13:43:46;;;;;;;41.53;23.57;;;;;;;4.12;84.49;98682.77;2169652;81;20940;-81
2022/12/21 13:46:47;;;;;;;40.07;23.43;;;;;;;4.07;84.71;98675.27;2169310;81;21337;-81
2022/12/21 13:49:47;;;;;;;36.73;22.80;;;;;;;4.03;84.86;98682.45;2170315;81;20985;-81
2022/12/21 13:52:48;;;;;;;50.80;28.73;;;;;;;3.97;84.96;98687.39;2171251;81;20952;-84
2022/12/21 13:55:48;;;;;;;50.03;27.17;;;;;;;3.93;85.12;98686.41;2170253;81;20996;-85
2022/12/21 13:58:48;;;;;;;54.00;30.40;;;;;;;3.81;85.39;98694.60;2169921;82;20964;-85
2022/12/21 14:01:49;;;;;;;51.27;29.80;;;;;;;3.71;85.59;98696.39;2170150;81;21355;-84
2022/12/21 14:04:49;;;;;;;57.83;28.83;;;;;;;3.62;85.93;98684.44;2170353;81;20997;-84
2022/12/21 14:07:50;;;;;;;61.37;33.67;;;;;;;3.59;86.42;98692.06;2170260;81;20984;-84
2022/12/21 14:10:50;;;;;;;52.93;30.30;;;;;;;3.53;86.75;98680.23;2170274;81;20984;-84
2022/12/21 14:13:50;;;;;;;44.83;27.07;;;;;;;3.49;87.23;98682.23;2170709;81;20953;-83